createdAt,value
2022-10-07T00:01:11.040Z,17.58
2022-10-07T00:03:39.293Z,17.58
2022-10-07T00:06:20.358Z,18.00
2022-10-07T00:08:52.283Z,18.77
2022-10-07T00:11:28.236Z,17.15
2022-10-07T00:13:59.224Z,18.90
2022-10-07T00:16:30.642Z,17.85
2022-10-07T00:19:01.512Z,16.50
2022-10-07T00:21:31.414Z,17.55
2022-10-07T00:24:00.290Z,18.05
2022-10-07T00:26:30.600Z,18.15
2022-10-07T00:28:58.736Z,18.92
2022-10-07T00:31:29.258Z,16.58
2022-10-07T00:33:57.777Z,17.70
2022-10-07T00:36:30.202Z,19.00
2022-10-07T00:39:00.846Z,17.15
2022-10-07T00:41:37.454Z,17.30
2022-10-07T00:44:36.917Z,17.02
2022-10-07T00:47:13.390Z,17.67
2022-10-07T00:50:06.523Z,18.55
2022-10-07T00:52:44.345Z,23.00
2022-10-07T00:55:17.026Z,28.50
2022-10-07T00:57:48.310Z,28.20
2022-10-07T01:00:17.228Z,30.48
2022-10-07T01:02:45.351Z,25.25
2022-10-07T01:05:14.312Z,25.13
2022-10-07T01:07:46.388Z,21.67
2022-10-07T01:10:18.728Z,21.42
2022-10-07T01:13:36.694Z,21.95
2022-10-07T01:16:53.767Z,22.13
2022-10-07T01:19:52.116Z,22.02
2022-10-07T01:23:23.770Z,20.70
2022-10-07T01:26:14.932Z,22.17
2022-10-07T01:28:51.711Z,22.08
2022-10-07T01:31:25.264Z,21.52
2022-10-07T01:33:56.161Z,21.95
2022-10-07T01:36:26.701Z,24.02
2022-10-07T01:39:02.578Z,23.23
2022-10-07T01:41:32.276Z,21.20
2022-10-07T01:44:01.534Z,23.33
2022-10-07T01:46:30.640Z,30.52
2022-10-07T01:49:01.584Z,28.35
2022-10-07T01:51:33.850Z,26.67
2022-10-07T01:54:16.197Z,25.08
2022-10-07T01:57:10.060Z,27.50
2022-10-07T01:59:40.905Z,26.15
2022-10-07T02:02:52.127Z,25.48
2022-10-07T02:06:01.517Z,24.70
2022-10-07T02:08:39.528Z,23.95
2022-10-07T02:11:15.984Z,23.25
2022-10-07T02:14:02.915Z,21.65
2022-10-07T02:16:51.032Z,21.17
2022-10-07T02:19:28.542Z,23.65
2022-10-07T02:21:58.369Z,25.05
2022-10-07T02:24:30.884Z,24.95
2022-10-07T02:27:02.285Z,21.08
2022-10-07T02:29:34.082Z,22.63
2022-10-07T02:32:06.461Z,23.25
2022-10-07T02:34:36.588Z,22.02
2022-10-07T02:37:14.814Z,22.92
2022-10-07T02:39:44.722Z,23.73
2022-10-07T02:42:39.954Z,22.52
2022-10-07T02:45:31.755Z,23.08
2022-10-07T02:48:04.342Z,22.55
2022-10-07T02:50:39.992Z,23.02
2022-10-07T02:53:13.689Z,23.67
2022-10-07T02:55:44.358Z,23.00
2022-10-07T02:58:14.200Z,24.50
2022-10-07T03:00:47.585Z,25.52
2022-10-07T03:03:17.023Z,24.98
2022-10-07T03:06:00.749Z,25.98
2022-10-07T03:08:30.579Z,27.00
2022-10-07T03:10:59.273Z,25.55
2022-10-07T03:13:27.052Z,24.70
2022-10-07T03:15:59.760Z,25.77
2022-10-07T03:18:30.036Z,27.88
2022-10-07T03:21:16.552Z,26.15
2022-10-07T03:23:45.133Z,25.75
2022-10-07T03:26:13.520Z,25.65
2022-10-07T03:28:41.437Z,29.55
2022-10-07T03:31:11.924Z,25.80
2022-10-07T03:33:45.673Z,26.25
2022-10-07T03:36:13.694Z,26.88
2022-10-07T03:38:44.316Z,27.88
2022-10-07T03:41:13.305Z,25.75
2022-10-07T03:43:41.136Z,28.67
2022-10-07T03:46:10.686Z,27.92
2022-10-07T03:48:39.543Z,28.38
2022-10-07T03:51:08.169Z,26.90
2022-10-07T03:53:41.516Z,27.67
2022-10-07T03:56:09.325Z,27.85
2022-10-07T03:58:39.378Z,29.02
2022-10-07T04:01:12.440Z,28.67
2022-10-07T04:03:46.338Z,29.48
2022-10-07T04:06:14.687Z,30.35
2022-10-07T04:08:43.676Z,28.55
2022-10-07T04:11:12.305Z,29.73
2022-10-07T04:13:42.995Z,29.30
2022-10-07T04:16:11.317Z,30.05
2022-10-07T04:18:41.992Z,31.17
2022-10-07T04:21:11.549Z,30.77
2022-10-07T04:23:41.472Z,28.98
2022-10-07T04:26:12.061Z,30.33
2022-10-07T04:28:44.025Z,28.90
2022-10-07T04:31:14.902Z,29.10
2022-10-07T04:33:46.573Z,30.42
2022-10-07T04:38:53.158Z,29.65
2022-10-07T04:41:26.512Z,31.10
2022-10-07T04:43:57.680Z,29.48
2022-10-07T04:49:05.704Z,31.85
2022-10-07T04:51:33.646Z,30.70
2022-10-07T04:54:02.127Z,32.90
2022-10-07T04:56:36.284Z,33.05
2022-10-07T04:59:07.066Z,34.33
2022-10-07T05:01:37.001Z,34.00
2022-10-07T05:04:05.116Z,34.20
2022-10-07T05:06:34.166Z,34.70
2022-10-07T05:09:02.255Z,36.67
2022-10-07T05:11:34.006Z,35.38
2022-10-07T05:14:08.372Z,37.53
2022-10-07T05:16:37.450Z,34.38
2022-10-07T05:19:06.345Z,34.28
2022-10-07T05:21:34.229Z,34.72
2022-10-07T05:24:04.594Z,37.20
2022-10-07T05:26:36.485Z,35.78
2022-10-07T05:29:06.981Z,34.60
2022-10-07T05:31:45.550Z,34.72
2022-10-07T05:34:16.596Z,37.17
2022-10-07T05:36:44.882Z,36.05
2022-10-07T05:39:14.665Z,36.88
2022-10-07T05:41:55.713Z,36.10
2022-10-07T05:44:29.582Z,36.15
2022-10-07T05:46:58.984Z,36.88
2022-10-07T05:49:27.937Z,35.05
2022-10-07T05:51:56.363Z,36.05
2022-10-07T05:54:24.864Z,35.65
2022-10-07T05:56:54.955Z,35.80
2022-10-07T05:59:24.099Z,36.17
2022-10-07T06:01:52.241Z,35.50
2022-10-07T06:04:22.346Z,36.42
2022-10-07T06:06:52.884Z,32.08
2022-10-07T06:09:39.585Z,27.63
2022-10-07T06:12:31.824Z,24.77
2022-10-07T06:15:04.181Z,21.30
2022-10-07T06:17:32.182Z,22.83
2022-10-07T06:20:02.394Z,20.38
2022-10-07T06:22:30.466Z,18.98
2022-10-07T06:25:01.039Z,19.08
2022-10-07T06:27:30.249Z,18.48
2022-10-07T06:29:58.151Z,16.08
2022-10-07T06:32:25.880Z,15.73
2022-10-07T06:34:54.261Z,15.55
2022-10-07T06:37:22.895Z,15.65
2022-10-07T06:39:51.070Z,15.13
2022-10-07T06:42:18.936Z,15.23
2022-10-07T06:45:19.007Z,15.27
2022-10-07T06:47:48.923Z,15.25
2022-10-07T06:50:16.933Z,15.13
2022-10-07T06:52:44.801Z,15.90
2022-10-07T06:55:12.796Z,15.35
2022-10-07T06:57:45.608Z,15.27
2022-10-07T07:02:44.911Z,15.10
2022-10-07T07:05:16.446Z,14.48
2022-10-07T07:07:46.452Z,15.27
2022-10-07T07:10:15.062Z,13.65
2022-10-07T07:12:46.890Z,14.10
2022-10-07T07:15:15.277Z,14.05
2022-10-07T07:17:43.368Z,13.48
2022-10-07T07:20:13.391Z,12.38
2022-10-07T07:22:42.089Z,12.32
2022-10-07T07:25:11.169Z,12.07
2022-10-07T07:27:39.414Z,11.20
2022-10-07T07:30:09.354Z,11.43
2022-10-07T07:32:37.147Z,10.73
2022-10-07T07:35:05.614Z,10.25
2022-10-07T07:37:33.948Z,11.20
2022-10-07T07:40:01.973Z,9.23
2022-10-07T07:42:31.818Z,9.77
2022-10-07T07:45:00.993Z,8.10
2022-10-07T07:47:29.856Z,7.95
2022-10-07T07:49:57.978Z,7.40
2022-10-07T07:52:30.715Z,7.45
2022-10-07T07:55:02.643Z,7.10
2022-10-07T07:57:31.554Z,6.65
2022-10-07T08:00:05.662Z,6.57
2022-10-07T08:02:42.268Z,6.80
2022-10-07T08:05:14.714Z,6.72
2022-10-07T08:07:42.458Z,6.18
2022-10-07T08:10:11.578Z,6.07
2022-10-07T08:12:40.280Z,5.70
2022-10-07T08:15:10.841Z,5.50
2022-10-07T08:17:39.990Z,5.55
2022-10-07T08:20:10.797Z,5.85
2022-10-07T08:22:39.538Z,5.70
2022-10-07T08:25:08.099Z,5.47
2022-10-07T08:27:36.150Z,5.25
2022-10-07T08:30:04.397Z,5.32
2022-10-07T08:32:32.528Z,4.90
2022-10-07T08:35:00.266Z,4.57
2022-10-07T08:37:28.318Z,4.80
2022-10-07T08:39:56.251Z,4.40
2022-10-07T08:42:40.346Z,4.70
2022-10-07T08:47:47.646Z,4.43
2022-10-07T08:50:45.065Z,4.28
2022-10-07T08:53:21.107Z,3.88
2022-10-07T08:55:53.943Z,3.55
2022-10-07T08:58:44.908Z,4.13
2022-10-07T09:01:34.206Z,4.18
2022-10-07T09:04:35.030Z,3.22
2022-10-07T09:07:10.682Z,3.67
2022-10-07T09:09:41.146Z,3.33
2022-10-07T09:12:22.835Z,3.38
2022-10-07T09:14:55.767Z,3.67
2022-10-07T09:17:58.616Z,3.60
2022-10-07T09:20:39.223Z,3.50
2022-10-07T09:23:12.760Z,3.30
2022-10-07T09:25:41.522Z,3.40
2022-10-07T09:28:15.054Z,3.53
2022-10-07T09:30:43.754Z,3.88
2022-10-07T09:33:18.597Z,3.85
2022-10-07T09:35:57.540Z,4.25
2022-10-07T09:38:47.442Z,3.83
2022-10-07T09:41:32.783Z,3.92
2022-10-07T09:44:12.415Z,3.88
2022-10-07T09:46:57.312Z,3.55
2022-10-07T09:49:31.576Z,4.10
2022-10-07T09:54:36.611Z,4.53
2022-10-07T09:57:06.181Z,4.40
2022-10-07T09:59:36.272Z,4.13
2022-10-07T10:02:22.851Z,3.17
2022-10-07T10:04:53.735Z,2.58
2022-10-07T10:07:36.322Z,3.60
2022-10-07T10:10:27.237Z,3.03
2022-10-07T10:12:58.164Z,2.78
2022-10-07T10:15:41.180Z,3.00
2022-10-07T10:18:27.736Z,3.30
2022-10-07T10:20:55.910Z,3.47
2022-10-07T10:23:36.927Z,3.20
2022-10-07T10:26:30.827Z,3.55
2022-10-07T10:29:31.801Z,3.72
2022-10-07T10:32:02.743Z,3.35
2022-10-07T10:34:50.286Z,3.35
2022-10-07T10:37:26.705Z,3.40
2022-10-07T10:40:09.414Z,4.22
2022-10-07T10:42:50.638Z,4.00
2022-10-07T10:45:18.445Z,4.78
2022-10-07T10:48:24.388Z,4.05
2022-10-07T10:51:11.627Z,3.92
2022-10-07T10:53:56.768Z,3.35
2022-10-07T10:56:34.336Z,4.28
2022-10-07T10:59:16.336Z,2.85
2022-10-07T11:01:50.719Z,2.60
2022-10-07T11:04:45.390Z,2.30
2022-10-07T11:07:21.804Z,2.60
2022-10-07T11:09:55.266Z,2.35
2022-10-07T11:12:29.203Z,2.03
2022-10-07T11:15:16.328Z,2.00
2022-10-07T11:17:47.522Z,2.20
2022-10-07T11:20:42.269Z,2.22
2022-10-07T11:23:31.027Z,1.75
2022-10-07T11:26:23.071Z,2.40
2022-10-07T11:28:51.968Z,2.35
2022-10-07T11:31:36.973Z,2.17
2022-10-07T11:34:07.566Z,2.40
2022-10-07T11:36:41.365Z,2.15
2022-10-07T11:39:09.647Z,2.47
2022-10-07T11:41:52.681Z,2.60
2022-10-07T11:44:47.567Z,2.40
2022-10-07T11:47:21.438Z,2.33
2022-10-07T11:50:28.003Z,2.20
2022-10-07T11:53:02.660Z,2.30
2022-10-07T11:55:44.221Z,2.30
2022-10-07T11:58:32.019Z,2.63
2022-10-07T12:01:28.871Z,2.60
2022-10-07T12:04:19.159Z,2.88
2022-10-07T12:07:24.061Z,2.58
2022-10-07T12:10:03.716Z,2.60
2022-10-07T12:12:44.734Z,2.33
2022-10-07T12:15:33.098Z,2.50
2022-10-07T12:18:06.023Z,2.47
2022-10-07T12:20:58.672Z,2.70
2022-10-07T12:23:26.548Z,2.78
2022-10-07T12:26:02.626Z,2.97
2022-10-07T12:28:48.734Z,3.20
2022-10-07T12:31:17.918Z,3.22
2022-10-07T12:33:56.437Z,2.78
2022-10-07T12:36:25.458Z,3.10
2022-10-07T12:39:01.004Z,3.00
2022-10-07T12:41:47.383Z,2.90
2022-10-07T12:44:38.569Z,2.70
2022-10-07T12:47:16.240Z,2.83
2022-10-07T12:49:59.121Z,2.70
2022-10-07T12:52:53.452Z,2.72
2022-10-07T12:55:37.212Z,3.03
2022-10-07T12:58:53.198Z,2.80
2022-10-07T13:01:52.713Z,2.95
2022-10-07T13:04:39.194Z,2.75
2022-10-07T13:07:21.648Z,3.00
2022-10-07T13:10:08.083Z,2.85
2022-10-07T13:13:10.996Z,2.80
2022-10-07T13:16:27.491Z,2.80
2022-10-07T13:19:06.328Z,3.00
2022-10-07T13:21:39.668Z,2.53
2022-10-07T13:24:16.732Z,2.70
2022-10-07T13:26:46.540Z,2.38
2022-10-07T13:29:25.459Z,2.80
2022-10-07T13:32:11.748Z,2.30
2022-10-07T13:34:40.179Z,2.53
2022-10-07T13:37:28.493Z,2.30
2022-10-07T13:40:16.088Z,2.53
2022-10-07T13:42:44.512Z,2.75
2022-10-07T13:45:16.036Z,2.38
2022-10-07T13:47:46.921Z,2.78
2022-10-07T13:50:26.883Z,2.80
2022-10-07T13:52:56.128Z,3.15
2022-10-07T13:55:28.639Z,3.45
2022-10-07T13:57:58.464Z,2.95
2022-10-07T14:00:29.650Z,3.05
2022-10-07T14:02:57.981Z,3.03
2022-10-07T14:05:28.577Z,2.92
2022-10-07T14:08:11.332Z,2.90
2022-10-07T14:10:57.285Z,3.05
2022-10-07T14:13:28.973Z,3.63
2022-10-07T14:15:58.506Z,3.33
2022-10-07T14:18:32.026Z,2.97
2022-10-07T14:21:16.967Z,3.28
2022-10-07T14:23:48.773Z,2.95
2022-10-07T14:26:18.023Z,3.03
2022-10-07T14:28:45.857Z,3.63
2022-10-07T14:31:38.601Z,3.50
2022-10-07T14:34:38.816Z,3.35
2022-10-07T14:37:18.624Z,3.15
2022-10-07T14:39:49.607Z,3.42
2022-10-07T14:42:18.137Z,3.25
2022-10-07T14:44:46.730Z,3.65
2022-10-07T14:47:21.082Z,3.30
2022-10-07T14:52:44.566Z,3.42
2022-10-07T14:55:23.532Z,3.55
2022-10-07T14:57:52.616Z,3.47
2022-10-07T15:00:25.585Z,3.40
2022-10-07T15:02:54.644Z,3.93
2022-10-07T15:05:23.366Z,3.47
2022-10-07T15:07:51.330Z,3.90
2022-10-07T15:10:23.651Z,3.90
2022-10-07T15:12:51.472Z,3.35
2022-10-07T15:15:19.959Z,3.67
2022-10-07T15:17:48.096Z,3.90
2022-10-07T15:20:17.102Z,3.75
2022-10-07T15:22:45.924Z,3.72
2022-10-07T15:25:18.057Z,4.22
2022-10-07T15:27:46.251Z,4.20
2022-10-07T15:30:14.234Z,3.97
2022-10-07T15:32:42.152Z,3.85
2022-10-07T15:35:10.278Z,3.80
2022-10-07T15:37:37.985Z,3.70
2022-10-07T15:40:07.636Z,4.15
2022-10-07T15:42:35.707Z,4.10
2022-10-07T15:45:03.700Z,3.97
2022-10-07T15:47:33.309Z,3.55
2022-10-07T15:50:01.674Z,4.25
2022-10-07T15:52:30.653Z,4.20
2022-10-07T15:55:02.579Z,4.40
2022-10-07T15:57:33.109Z,5.00
2022-10-07T16:00:02.441Z,4.28
2022-10-07T16:02:39.868Z,4.32
2022-10-07T16:05:09.544Z,4.50
2022-10-07T16:07:37.633Z,4.80
2022-10-07T16:10:10.713Z,4.40
2022-10-07T16:12:40.418Z,4.85
2022-10-07T16:15:08.611Z,5.50
2022-10-07T16:17:36.263Z,5.78
2022-10-07T16:20:10.365Z,6.68
2022-10-07T16:22:39.446Z,6.32
2022-10-07T16:25:07.345Z,6.07
2022-10-07T16:27:53.898Z,7.35
2022-10-07T16:30:40.043Z,7.32
2022-10-07T16:33:08.585Z,7.70
2022-10-07T16:35:36.299Z,8.77
2022-10-07T16:38:04.963Z,11.68
2022-10-07T16:40:32.677Z,13.88
2022-10-07T16:43:00.512Z,14.27
2022-10-07T16:45:28.563Z,14.93
2022-10-07T16:47:56.999Z,15.65
2022-10-07T16:50:24.715Z,17.08
2022-10-07T16:52:52.985Z,17.60
2022-10-07T16:55:20.869Z,16.48
2022-10-07T16:57:49.083Z,12.50
2022-10-07T17:00:17.527Z,12.60
2022-10-07T17:02:45.492Z,11.50
2022-10-07T17:05:13.419Z,10.68
2022-10-07T17:07:41.224Z,10.52
2022-10-07T17:10:09.604Z,8.52
2022-10-07T17:12:38.021Z,10.45
2022-10-07T17:15:06.151Z,9.63
2022-10-07T17:17:34.143Z,10.80
2022-10-07T17:20:02.018Z,11.82
2022-10-07T17:22:30.000Z,13.50
2022-10-07T17:24:57.948Z,14.23
2022-10-07T17:27:25.917Z,14.90
2022-10-07T17:29:55.433Z,13.32
2022-10-07T17:32:24.206Z,14.45
2022-10-07T17:34:51.904Z,15.50
2022-10-07T17:37:19.848Z,17.00
2022-10-07T17:39:48.174Z,17.13
2022-10-07T17:42:16.145Z,17.50
2022-10-07T17:44:43.836Z,16.83
2022-10-07T17:47:11.842Z,15.27
2022-10-07T17:49:39.697Z,15.00
2022-10-07T17:52:07.659Z,15.93
2022-10-07T17:54:36.019Z,18.80
2022-10-07T17:57:04.945Z,20.10
2022-10-07T17:59:32.903Z,17.50
2022-10-07T18:02:00.709Z,16.92
2022-10-07T18:04:28.847Z,16.27
2022-10-07T18:06:58.189Z,16.10
2022-10-07T18:09:27.509Z,15.43
2022-10-07T18:12:13.848Z,18.02
2022-10-07T18:15:00.505Z,17.13
2022-10-07T18:17:28.721Z,16.42
2022-10-07T18:19:58.014Z,18.48
2022-10-07T18:22:25.954Z,21.05
2022-10-07T18:24:58.482Z,22.00
2022-10-07T18:27:27.251Z,22.73
2022-10-07T18:29:55.975Z,22.33
2022-10-07T18:32:24.560Z,21.85
2022-10-07T18:34:52.780Z,22.05
2022-10-07T18:37:20.892Z,20.75
2022-10-07T18:39:48.558Z,22.05
2022-10-07T18:42:16.700Z,22.38
2022-10-07T18:44:44.361Z,40.35
2022-10-07T18:47:12.300Z,62.05
2022-10-07T18:49:40.244Z,61.83
2022-10-07T18:52:08.084Z,50.15
2022-10-07T18:54:35.761Z,42.20
2022-10-07T18:57:04.002Z,36.05
2022-10-07T18:59:31.717Z,30.73
2022-10-07T19:01:59.637Z,27.00
2022-10-07T19:04:28.861Z,22.33
2022-10-07T19:06:56.611Z,23.30
2022-10-07T19:09:25.430Z,19.48
2022-10-07T19:11:53.361Z,20.15
2022-10-07T19:14:25.792Z,19.23
2022-10-07T19:16:54.255Z,17.80
2022-10-07T19:19:24.211Z,17.88
2022-10-07T19:21:54.290Z,17.27
2022-10-07T19:24:46.033Z,17.45
2022-10-07T19:27:14.344Z,16.48
2022-10-07T19:29:42.241Z,15.85
2022-10-07T19:32:09.956Z,15.75
2022-10-07T19:34:37.769Z,14.45
2022-10-07T19:37:06.471Z,14.90
2022-10-07T19:39:34.454Z,13.70
2022-10-07T19:42:02.393Z,12.05
2022-10-07T19:44:30.375Z,13.43
2022-10-07T19:46:58.226Z,12.25
2022-10-07T19:49:26.105Z,11.90
2022-10-07T19:51:53.780Z,11.40
2022-10-07T19:54:21.691Z,11.73
2022-10-07T19:56:49.466Z,11.63
2022-10-07T19:59:17.167Z,10.63
2022-10-07T20:01:47.493Z,10.75
2022-10-07T20:04:18.712Z,9.95
2022-10-07T20:06:47.190Z,9.85
2022-10-07T20:09:17.427Z,10.38
2022-10-07T20:11:46.922Z,10.10
2022-10-07T20:14:16.160Z,10.18
2022-10-07T20:16:44.456Z,10.10
2022-10-07T20:19:15.837Z,9.88
2022-10-07T20:21:44.030Z,10.25
2022-10-07T20:24:16.508Z,9.57
2022-10-07T20:26:45.096Z,10.50
2022-10-07T20:29:15.984Z,10.02
2022-10-07T20:31:45.092Z,9.45
2022-10-07T20:34:16.341Z,10.43
2022-10-07T20:36:44.334Z,11.48
2022-10-07T20:39:38.622Z,9.75
2022-10-07T20:42:22.235Z,10.30
2022-10-07T20:44:51.514Z,10.93
2022-10-07T20:47:21.591Z,9.35
2022-10-07T20:49:51.250Z,9.93
2022-10-07T20:52:22.780Z,9.80
2022-10-07T20:54:51.496Z,10.27
2022-10-07T20:57:28.694Z,10.10
2022-10-07T20:59:56.501Z,10.15
2022-10-07T21:02:25.161Z,10.48
2022-10-07T21:04:53.640Z,11.18
2022-10-07T21:07:21.685Z,10.77
2022-10-07T21:09:49.556Z,11.05
2022-10-07T21:12:18.371Z,10.38
2022-10-07T21:14:48.061Z,10.55
2022-10-07T21:17:16.751Z,11.20
2022-10-07T21:19:45.025Z,9.80
2022-10-07T21:22:13.021Z,9.85
2022-10-07T21:24:40.706Z,10.82
2022-10-07T21:27:08.675Z,9.80
2022-10-07T21:29:40.655Z,10.02
2022-10-07T21:32:10.323Z,10.80
2022-10-07T21:34:38.672Z,10.55
2022-10-07T21:37:06.538Z,10.32
2022-10-07T21:39:34.398Z,10.65
2022-10-07T21:42:02.558Z,10.93
2022-10-07T21:44:33.351Z,11.55
2022-10-07T21:47:01.284Z,10.40
2022-10-07T21:49:29.882Z,9.50
2022-10-07T21:51:59.436Z,9.75
2022-10-07T21:54:27.591Z,10.73
2022-10-07T21:56:55.516Z,9.60
2022-10-07T21:59:23.843Z,10.05
2022-10-07T22:01:51.721Z,9.60
2022-10-07T22:04:20.160Z,10.32
2022-10-07T22:07:06.551Z,10.15
2022-10-07T22:09:35.756Z,10.43
2022-10-07T22:12:03.580Z,10.15
2022-10-07T22:14:31.561Z,10.52
2022-10-07T22:16:59.289Z,10.40
2022-10-07T22:19:26.974Z,9.55
2022-10-07T22:21:55.379Z,10.27
2022-10-07T22:24:24.135Z,10.90
2022-10-07T22:26:52.126Z,10.68
2022-10-07T22:29:21.725Z,10.48
2022-10-07T22:31:49.702Z,9.90
2022-10-07T22:34:36.513Z,10.43
2022-10-07T22:37:05.542Z,10.63
2022-10-07T22:39:33.362Z,10.48
2022-10-07T22:42:01.929Z,9.73
2022-10-07T22:44:29.660Z,9.88
2022-10-07T22:46:59.838Z,10.35
2022-10-07T22:49:30.094Z,10.95
2022-10-07T22:51:59.941Z,10.43
2022-10-07T22:54:29.842Z,11.05
2022-10-07T22:56:57.815Z,10.43
2022-10-07T22:59:25.592Z,11.00
2022-10-07T23:01:53.448Z,11.15
2022-10-07T23:04:21.605Z,11.10
2022-10-07T23:06:49.589Z,10.73
2022-10-07T23:09:17.335Z,10.68
2022-10-07T23:11:45.848Z,10.95
2022-10-07T23:14:13.952Z,10.18
2022-10-07T23:16:41.961Z,10.30
2022-10-07T23:19:10.150Z,11.55
2022-10-07T23:21:38.038Z,10.00
2022-10-07T23:24:08.063Z,10.68
2022-10-07T23:26:36.995Z,10.50
2022-10-07T23:29:07.563Z,10.95
2022-10-07T23:31:35.673Z,10.40
2022-10-07T23:34:04.934Z,10.23
2022-10-07T23:36:34.825Z,11.07
2022-10-07T23:39:02.780Z,10.70
2022-10-07T23:41:32.016Z,10.90
2022-10-07T23:44:02.231Z,10.73
2022-10-07T23:46:39.657Z,10.77
2022-10-07T23:49:07.666Z,11.35
2022-10-07T23:51:35.352Z,10.82
2022-10-07T23:54:04.935Z,11.07
2022-10-07T23:56:33.367Z,11.57
2022-10-07T23:59:02.504Z,10.80
